sensor_id;sensor_type;location;lat;lon;timestamp;temperature;humidity
1347;DHT22;667;48.796;9.480;2023-10-19T00:00:36;13.60;85.40
1347;DHT22;667;48.796;9.480;2023-10-19T00:03:06;13.60;85.40
1347;DHT22;667;48.796;9.480;2023-10-19T00:05:32;13.60;85.40
1347;DHT22;667;48.796;9.480;2023-10-19T00:08:03;13.60;85.40
1347;DHT22;667;48.796;9.480;2023-10-19T00:10:48;13.60;85.40
1347;DHT22;667;48.796;9.480;2023-10-19T00:13:15;13.60;85.50
1347;DHT22;667;48.796;9.480;2023-10-19T00:15:44;13.60;85.50
1347;DHT22;667;48.796;9.480;2023-10-19T00:18:17;13.60;85.60
1347;DHT22;667;48.796;9.480;2023-10-19T00:20:45;13.60;85.60
1347;DHT22;667;48.796;9.480;2023-10-19T00:23:14;13.60;85.70
1347;DHT22;667;48.796;9.480;2023-10-19T00:25:44;13.60;85.80
1347;DHT22;667;48.796;9.480;2023-10-19T00:28:15;13.60;85.80
1347;DHT22;667;48.796;9.480;2023-10-19T00:30:43;13.60;86.60
1347;DHT22;667;48.796;9.480;2023-10-19T00:33:08;13.60;85.90
1347;DHT22;667;48.796;9.480;2023-10-19T00:35:46;13.60;86.00
1347;DHT22;667;48.796;9.480;2023-10-19T00:38:30;13.60;86.00
1347;DHT22;667;48.796;9.480;2023-10-19T00:41:06;13.60;86.10
1347;DHT22;667;48.796;9.480;2023-10-19T00:43:36;13.60;86.20
1347;DHT22;667;48.796;9.480;2023-10-19T00:46:08;13.50;86.20
1347;DHT22;667;48.796;9.480;2023-10-19T00:48:56;13.50;86.30
1347;DHT22;667;48.796;9.480;2023-10-19T00:51:48;13.50;86.50
1347;DHT22;667;48.796;9.480;2023-10-19T00:54:50;13.60;86.60
1347;DHT22;667;48.796;9.480;2023-10-19T00:57:18;13.50;86.60
1347;DHT22;667;48.796;9.480;2023-10-19T00:59:57;13.60;86.80
1347;DHT22;667;48.796;9.480;2023-10-19T01:02:37;13.60;86.80
1347;DHT22;667;48.796;9.480;2023-10-19T01:05:09;13.60;86.80
1347;DHT22;667;48.796;9.480;2023-10-19T01:07:38;13.60;86.90
1347;DHT22;667;48.796;9.480;2023-10-19T01:10:04;13.60;86.90
1347;DHT22;667;48.796;9.480;2023-10-19T01:12:31;13.60;87.60
1347;DHT22;667;48.796;9.480;2023-10-19T01:17:40;13.60;87.00
1347;DHT22;667;48.796;9.480;2023-10-19T01:22:54;13.60;87.20
1347;DHT22;667;48.796;9.480;2023-10-19T01:25:47;13.70;87.40
1347;DHT22;667;48.796;9.480;2023-10-19T01:28:16;13.60;87.40
1347;DHT22;667;48.796;9.480;2023-10-19T01:30:45;13.60;87.40
1347;DHT22;667;48.796;9.480;2023-10-19T01:33:12;13.60;87.40
1347;DHT22;667;48.796;9.480;2023-10-19T01:35:46;13.60;87.50
1347;DHT22;667;48.796;9.480;2023-10-19T01:38:31;13.60;87.70
1347;DHT22;667;48.796;9.480;2023-10-19T01:40:57;13.60;87.90
1347;DHT22;667;48.796;9.480;2023-10-19T01:43:26;13.60;87.90
1347;DHT22;667;48.796;9.480;2023-10-19T01:45:59;13.60;88.10
1347;DHT22;667;48.796;9.480;2023-10-19T01:48:30;13.60;88.20
1347;DHT22;667;48.796;9.480;2023-10-19T01:51:01;13.60;88.20
1347;DHT22;667;48.796;9.480;2023-10-19T01:53:29;13.70;88.30
1347;DHT22;667;48.796;9.480;2023-10-19T01:55:55;13.70;88.30
1347;DHT22;667;48.796;9.480;2023-10-19T01:58:26;13.70;88.30
1347;DHT22;667;48.796;9.480;2023-10-19T02:00:55;13.70;88.30
1347;DHT22;667;48.796;9.480;2023-10-19T02:03:21;13.70;88.30
1347;DHT22;667;48.796;9.480;2023-10-19T02:05:57;13.80;88.30
1347;DHT22;667;48.796;9.480;2023-10-19T02:08:24;13.80;88.40
1347;DHT22;667;48.796;9.480;2023-10-19T02:10:52;13.80;88.50
1347;DHT22;667;48.796;9.480;2023-10-19T02:13:18;13.80;88.50
1347;DHT22;667;48.796;9.480;2023-10-19T02:15:44;13.80;88.80
1347;DHT22;667;48.796;9.480;2023-10-19T02:18:10;13.80;88.90
1347;DHT22;667;48.796;9.480;2023-10-19T02:20:36;13.80;89.20
1347;DHT22;667;48.796;9.480;2023-10-19T02:23:05;13.80;89.30
1347;DHT22;667;48.796;9.480;2023-10-19T02:25:32;13.80;89.50
1347;DHT22;667;48.796;9.480;2023-10-19T02:28:04;13.80;89.60
1347;DHT22;667;48.796;9.480;2023-10-19T02:30:32;13.80;89.80
1347;DHT22;667;48.796;9.480;2023-10-19T02:33:00;13.80;89.80
1347;DHT22;667;48.796;9.480;2023-10-19T02:35:31;13.80;90.00
1347;DHT22;667;48.796;9.480;2023-10-19T02:37:57;13.80;90.00
1347;DHT22;667;48.796;9.480;2023-10-19T02:40:23;13.80;90.00
1347;DHT22;667;48.796;9.480;2023-10-19T02:42:50;13.90;90.10
1347;DHT22;667;48.796;9.480;2023-10-19T02:45:16;13.90;90.10
1347;DHT22;667;48.796;9.480;2023-10-19T02:47:46;13.90;90.10
1347;DHT22;667;48.796;9.480;2023-10-19T02:50:12;13.90;90.00
1347;DHT22;667;48.796;9.480;2023-10-19T02:52:47;13.90;90.00
1347;DHT22;667;48.796;9.480;2023-10-19T02:55:13;13.90;90.00
1347;DHT22;667;48.796;9.480;2023-10-19T02:57:41;13.90;90.00
1347;DHT22;667;48.796;9.480;2023-10-19T03:00:12;13.90;90.00
1347;DHT22;667;48.796;9.480;2023-10-19T03:02:40;13.90;90.00
1347;DHT22;667;48.796;9.480;2023-10-19T03:05:06;13.90;90.00
1347;DHT22;667;48.796;9.480;2023-10-19T03:07:43;13.90;90.00
1347;DHT22;667;48.796;9.480;2023-10-19T03:10:10;13.90;90.00
1347;DHT22;667;48.796;9.480;2023-10-19T03:12:50;13.90;90.00
1347;DHT22;667;48.796;9.480;2023-10-19T03:15:17;13.80;89.90
1347;DHT22;667;48.796;9.480;2023-10-19T03:17:46;13.90;90.00
1347;DHT22;667;48.796;9.480;2023-10-19T03:20:12;13.90;90.00
1347;DHT22;667;48.796;9.480;2023-10-19T03:22:37;13.80;89.70
1347;DHT22;667;48.796;9.480;2023-10-19T03:25:05;13.80;89.60
1347;DHT22;667;48.796;9.480;2023-10-19T03:27:57;13.80;89.50
1347;DHT22;667;48.796;9.480;2023-10-19T03:30:23;13.80;89.30
1347;DHT22;667;48.796;9.480;2023-10-19T03:32:51;13.80;89.30
1347;DHT22;667;48.796;9.480;2023-10-19T03:35:16;13.80;89.20
1347;DHT22;667;48.796;9.480;2023-10-19T03:37:43;13.80;89.00
1347;DHT22;667;48.796;9.480;2023-10-19T03:40:09;13.80;88.90
1347;DHT22;667;48.796;9.480;2023-10-19T03:42:40;13.70;88.70
1347;DHT22;667;48.796;9.480;2023-10-19T03:45:07;13.70;88.60
1347;DHT22;667;48.796;9.480;2023-10-19T03:47:38;13.70;88.40
1347;DHT22;667;48.796;9.480;2023-10-19T03:50:05;13.70;88.20
1347;DHT22;667;48.796;9.480;2023-10-19T03:52:39;13.70;88.00
1347;DHT22;667;48.796;9.480;2023-10-19T03:55:06;13.70;87.80
1347;DHT22;667;48.796;9.480;2023-10-19T03:57:37;13.70;87.70
1347;DHT22;667;48.796;9.480;2023-10-19T04:00:07;13.60;87.60
1347;DHT22;667;48.796;9.480;2023-10-19T04:02:40;13.60;87.60
1347;DHT22;667;48.796;9.480;2023-10-19T04:05:08;13.60;87.60
1347;DHT22;667;48.796;9.480;2023-10-19T04:07:35;13.60;87.80
1347;DHT22;667;48.796;9.480;2023-10-19T04:10:01;13.50;88.50
1347;DHT22;667;48.796;9.480;2023-10-19T04:12:37;13.60;88.50
1347;DHT22;667;48.796;9.480;2023-10-19T04:15:06;13.50;87.50
1347;DHT22;667;48.796;9.480;2023-10-19T04:17:52;13.50;87.20
1347;DHT22;667;48.796;9.480;2023-10-19T04:20:20;13.50;86.90
1347;DHT22;667;48.796;9.480;2023-10-19T04:22:52;13.50;86.70
1347;DHT22;667;48.796;9.480;2023-10-19T04:25:19;13.40;86.60
1347;DHT22;667;48.796;9.480;2023-10-19T04:27:46;13.40;86.50
1347;DHT22;667;48.796;9.480;2023-10-19T04:30:13;13.40;86.60
1347;DHT22;667;48.796;9.480;2023-10-19T04:32:49;13.40;86.70
1347;DHT22;667;48.796;9.480;2023-10-19T04:35:16;13.40;86.90
1347;DHT22;667;48.796;9.480;2023-10-19T04:37:52;13.40;87.00
1347;DHT22;667;48.796;9.480;2023-10-19T04:40:22;13.40;87.20
1347;DHT22;667;48.796;9.480;2023-10-19T04:42:50;13.30;87.00
1347;DHT22;667;48.796;9.480;2023-10-19T04:45:15;13.40;86.80
1347;DHT22;667;48.796;9.480;2023-10-19T04:47:41;13.30;86.60
1347;DHT22;667;48.796;9.480;2023-10-19T04:50:07;13.30;86.40
1347;DHT22;667;48.796;9.480;2023-10-19T04:52:36;13.20;86.20
1347;DHT22;667;48.796;9.480;2023-10-19T04:55:01;13.30;86.20
1347;DHT22;667;48.796;9.480;2023-10-19T04:57:27;13.20;86.20
1347;DHT22;667;48.796;9.480;2023-10-19T04:59:53;13.20;86.20
1347;DHT22;667;48.796;9.480;2023-10-19T05:02:18;13.20;86.20
1347;DHT22;667;48.796;9.480;2023-10-19T05:04:44;13.20;86.20
1347;DHT22;667;48.796;9.480;2023-10-19T05:07:14;13.20;86.30
1347;DHT22;667;48.796;9.480;2023-10-19T05:09:42;13.20;86.30
1347;DHT22;667;48.796;9.480;2023-10-19T05:12:08;13.10;86.20
1347;DHT22;667;48.796;9.480;2023-10-19T05:14:38;13.10;86.20
1347;DHT22;667;48.796;9.480;2023-10-19T05:17:04;13.10;86.30
1347;DHT22;667;48.796;9.480;2023-10-19T05:19:33;13.10;86.40
1347;DHT22;667;48.796;9.480;2023-10-19T05:22:00;13.10;86.40
1347;DHT22;667;48.796;9.480;2023-10-19T05:24:26;13.10;86.30
1347;DHT22;667;48.796;9.480;2023-10-19T05:26:53;13.10;86.40
1347;DHT22;667;48.796;9.480;2023-10-19T05:29:22;13.10;86.60
1347;DHT22;667;48.796;9.480;2023-10-19T05:31:51;13.10;86.70
1347;DHT22;667;48.796;9.480;2023-10-19T05:34:20;13.10;86.60
1347;DHT22;667;48.796;9.480;2023-10-19T05:36:46;13.10;86.70
1347;DHT22;667;48.796;9.480;2023-10-19T05:39:14;13.10;86.70
1347;DHT22;667;48.796;9.480;2023-10-19T05:41:40;13.00;86.70
1347;DHT22;667;48.796;9.480;2023-10-19T05:44:06;13.00;86.90
1347;DHT22;667;48.796;9.480;2023-10-19T05:46:31;13.00;87.00
1347;DHT22;667;48.796;9.480;2023-10-19T05:48:57;13.00;87.20
1347;DHT22;667;48.796;9.480;2023-10-19T05:51:23;13.10;87.30
1347;DHT22;667;48.796;9.480;2023-10-19T05:53:49;13.00;87.20
1347;DHT22;667;48.796;9.480;2023-10-19T05:56:16;13.10;87.40
1347;DHT22;667;48.796;9.480;2023-10-19T05:58:43;13.10;87.30
1347;DHT22;667;48.796;9.480;2023-10-19T06:01:08;13.10;87.30
1347;DHT22;667;48.796;9.480;2023-10-19T06:03:34;13.10;87.40
1347;DHT22;667;48.796;9.480;2023-10-19T06:05:59;13.10;87.50
1347;DHT22;667;48.796;9.480;2023-10-19T06:08:25;13.10;87.70
1347;DHT22;667;48.796;9.480;2023-10-19T06:10:53;13.10;87.90
1347;DHT22;667;48.796;9.480;2023-10-19T06:13:19;13.20;88.20
1347;DHT22;667;48.796;9.480;2023-10-19T06:15:44;13.20;88.40
1347;DHT22;667;48.796;9.480;2023-10-19T06:18:10;13.20;88.40
1347;DHT22;667;48.796;9.480;2023-10-19T06:20:36;13.20;88.60
1347;DHT22;667;48.796;9.480;2023-10-19T06:23:02;13.30;88.90
1347;DHT22;667;48.796;9.480;2023-10-19T06:25:33;13.20;89.10
1347;DHT22;667;48.796;9.480;2023-10-19T06:28:01;13.30;89.30
1347;DHT22;667;48.796;9.480;2023-10-19T06:30:27;13.30;89.30
1347;DHT22;667;48.796;9.480;2023-10-19T06:32:55;13.30;89.30
1347;DHT22;667;48.796;9.480;2023-10-19T06:35:21;13.40;89.40
1347;DHT22;667;48.796;9.480;2023-10-19T06:37:47;13.40;89.40
1347;DHT22;667;48.796;9.480;2023-10-19T06:40:15;13.40;89.40
1347;DHT22;667;48.796;9.480;2023-10-19T06:42:45;13.40;89.30
1347;DHT22;667;48.796;9.480;2023-10-19T06:45:11;13.40;89.40
1347;DHT22;667;48.796;9.480;2023-10-19T06:47:43;13.40;89.50
1347;DHT22;667;48.796;9.480;2023-10-19T06:50:11;13.50;89.60
1347;DHT22;667;48.796;9.480;2023-10-19T06:52:39;13.50;89.60
1347;DHT22;667;48.796;9.480;2023-10-19T06:55:06;13.50;89.60
1347;DHT22;667;48.796;9.480;2023-10-19T06:57:54;13.50;89.60
1347;DHT22;667;48.796;9.480;2023-10-19T07:00:23;13.50;89.70
1347;DHT22;667;48.796;9.480;2023-10-19T07:02:52;13.50;89.70
1347;DHT22;667;48.796;9.480;2023-10-19T07:05:19;13.50;89.60
1347;DHT22;667;48.796;9.480;2023-10-19T07:07:50;13.50;89.60
1347;DHT22;667;48.796;9.480;2023-10-19T07:10:18;13.50;89.60
1347;DHT22;667;48.796;9.480;2023-10-19T07:12:45;13.60;89.80
1347;DHT22;667;48.796;9.480;2023-10-19T07:15:12;13.50;89.70
1347;DHT22;667;48.796;9.480;2023-10-19T07:17:45;13.60;89.90
1347;DHT22;667;48.796;9.480;2023-10-19T07:20:12;13.60;90.00
1347;DHT22;667;48.796;9.480;2023-10-19T07:22:58;13.60;90.00
1347;DHT22;667;48.796;9.480;2023-10-19T07:25:50;13.60;89.90
1347;DHT22;667;48.796;9.480;2023-10-19T07:28:21;13.60;89.90
1347;DHT22;667;48.796;9.480;2023-10-19T07:30:47;13.60;89.90
1347;DHT22;667;48.796;9.480;2023-10-19T07:33:14;13.60;89.90
1347;DHT22;667;48.796;9.480;2023-10-19T07:35:44;13.60;89.90
1347;DHT22;667;48.796;9.480;2023-10-19T07:38:13;13.60;90.00
1347;DHT22;667;48.796;9.480;2023-10-19T07:40:39;13.60;89.90
1347;DHT22;667;48.796;9.480;2023-10-19T07:43:04;13.60;90.00
1347;DHT22;667;48.796;9.480;2023-10-19T07:45:31;13.60;90.00
1347;DHT22;667;48.796;9.480;2023-10-19T07:47:58;13.70;90.10
1347;DHT22;667;48.796;9.480;2023-10-19T07:50:34;13.70;90.10
1347;DHT22;667;48.796;9.480;2023-10-19T07:53:00;13.70;90.10
1347;DHT22;667;48.796;9.480;2023-10-19T07:55:26;13.70;90.10
1347;DHT22;667;48.796;9.480;2023-10-19T07:57:52;13.80;90.10
1347;DHT22;667;48.796;9.480;2023-10-19T08:00:20;13.80;90.10
1347;DHT22;667;48.796;9.480;2023-10-19T08:02:46;13.80;90.10
1347;DHT22;667;48.796;9.480;2023-10-19T08:05:15;13.90;90.10
1347;DHT22;667;48.796;9.480;2023-10-19T08:07:41;13.90;90.10
1347;DHT22;667;48.796;9.480;2023-10-19T08:10:13;13.90;90.20
1347;DHT22;667;48.796;9.480;2023-10-19T08:12:41;13.90;90.20
1347;DHT22;667;48.796;9.480;2023-10-19T08:15:08;14.00;90.30
1347;DHT22;667;48.796;9.480;2023-10-19T08:17:40;14.00;90.30
1347;DHT22;667;48.796;9.480;2023-10-19T08:20:07;14.10;90.40
1347;DHT22;667;48.796;9.480;2023-10-19T08:22:36;14.10;90.30
1347;DHT22;667;48.796;9.480;2023-10-19T08:25:03;14.10;90.30
1347;DHT22;667;48.796;9.480;2023-10-19T08:27:29;14.20;90.40
1347;DHT22;667;48.796;9.480;2023-10-19T08:29:56;14.30;90.40
1347;DHT22;667;48.796;9.480;2023-10-19T08:32:22;14.30;90.40
1347;DHT22;667;48.796;9.480;2023-10-19T08:34:47;14.40;90.50
1347;DHT22;667;48.796;9.480;2023-10-19T08:37:13;14.40;90.50
1347;DHT22;667;48.796;9.480;2023-10-19T08:39:40;14.50;90.50
1347;DHT22;667;48.796;9.480;2023-10-19T08:42:06;14.50;90.50
1347;DHT22;667;48.796;9.480;2023-10-19T08:44:32;14.50;90.50
1347;DHT22;667;48.796;9.480;2023-10-19T08:46:58;14.60;90.60
1347;DHT22;667;48.796;9.480;2023-10-19T08:49:25;14.70;90.70
1347;DHT22;667;48.796;9.480;2023-10-19T08:51:53;14.80;90.80
1347;DHT22;667;48.796;9.480;2023-10-19T08:54:19;14.90;90.90
1347;DHT22;667;48.796;9.480;2023-10-19T08:56:45;15.00;91.10
1347;DHT22;667;48.796;9.480;2023-10-19T08:59:13;15.20;91.40
1347;DHT22;667;48.796;9.480;2023-10-19T09:01:41;15.40;91.60
1347;DHT22;667;48.796;9.480;2023-10-19T09:04:10;15.50;91.50
1347;DHT22;667;48.796;9.480;2023-10-19T09:06:36;15.60;91.30
1347;DHT22;667;48.796;9.480;2023-10-19T09:09:10;15.90;91.10
1347;DHT22;667;48.796;9.480;2023-10-19T09:11:43;16.00;91.20
1347;DHT22;667;48.796;9.480;2023-10-19T09:14:08;16.20;90.90
1347;DHT22;667;48.796;9.480;2023-10-19T09:16:34;16.40;90.70
1347;DHT22;667;48.796;9.480;2023-10-19T09:19:02;16.50;90.30
1347;DHT22;667;48.796;9.480;2023-10-19T09:21:28;16.70;90.20
1347;DHT22;667;48.796;9.480;2023-10-19T09:23:55;16.80;90.00
1347;DHT22;667;48.796;9.480;2023-10-19T09:26:22;17.00;90.10
1347;DHT22;667;48.796;9.480;2023-10-19T09:28:49;17.00;88.60
1347;DHT22;667;48.796;9.480;2023-10-19T09:31:15;17.10;87.70
1347;DHT22;667;48.796;9.480;2023-10-19T09:33:42;17.10;87.10
1347;DHT22;667;48.796;9.480;2023-10-19T09:36:10;17.10;87.00
1347;DHT22;667;48.796;9.480;2023-10-19T09:38:49;17.10;86.70
1347;DHT22;667;48.796;9.480;2023-10-19T09:41:21;17.10;86.60
1347;DHT22;667;48.796;9.480;2023-10-19T09:43:50;17.00;86.40
1347;DHT22;667;48.796;9.480;2023-10-19T09:46:26;17.00;87.10
1347;DHT22;667;48.796;9.480;2023-10-19T09:48:54;17.00;86.50
1347;DHT22;667;48.796;9.480;2023-10-19T09:51:21;17.00;86.80
1347;DHT22;667;48.796;9.480;2023-10-19T09:56:28;17.00;87.10
1347;DHT22;667;48.796;9.480;2023-10-19T09:58:59;17.00;87.40
1347;DHT22;667;48.796;9.480;2023-10-19T10:01:25;17.00;87.70
1347;DHT22;667;48.796;9.480;2023-10-19T10:03:53;17.00;88.00
1347;DHT22;667;48.796;9.480;2023-10-19T10:09:12;17.00;88.20
1347;DHT22;667;48.796;9.480;2023-10-19T10:11:49;17.00;88.10
1347;DHT22;667;48.796;9.480;2023-10-19T10:14:27;17.00;88.20
1347;DHT22;667;48.796;9.480;2023-10-19T10:17:04;17.00;88.20
1347;DHT22;667;48.796;9.480;2023-10-19T10:19:35;17.00;89.20
1347;DHT22;667;48.796;9.480;2023-10-19T10:22:08;17.00;88.60
1347;DHT22;667;48.796;9.480;2023-10-19T10:24:41;17.00;89.20
1347;DHT22;667;48.796;9.480;2023-10-19T10:27:06;17.00;89.50
1347;DHT22;667;48.796;9.480;2023-10-19T10:29:32;17.00;89.80
1347;DHT22;667;48.796;9.480;2023-10-19T10:31:58;17.00;90.00
1347;DHT22;667;48.796;9.480;2023-10-19T10:37:06;17.00;90.10
1347;DHT22;667;48.796;9.480;2023-10-19T10:39:37;17.00;90.30
1347;DHT22;667;48.796;9.480;2023-10-19T10:42:04;17.00;90.40
1347;DHT22;667;48.796;9.480;2023-10-19T10:47:20;17.00;90.40
1347;DHT22;667;48.796;9.480;2023-10-19T10:52:33;17.00;90.40
1347;DHT22;667;48.796;9.480;2023-10-19T10:55:09;17.10;90.60
1347;DHT22;667;48.796;9.480;2023-10-19T10:57:37;17.10;90.70
1347;DHT22;667;48.796;9.480;2023-10-19T11:00:07;17.10;90.80
1347;DHT22;667;48.796;9.480;2023-10-19T11:02:37;17.10;90.70
1347;DHT22;667;48.796;9.480;2023-10-19T11:05:08;17.20;90.70
1347;DHT22;667;48.796;9.480;2023-10-19T11:07:37;17.20;90.60
1347;DHT22;667;48.796;9.480;2023-10-19T11:10:03;17.20;90.50
1347;DHT22;667;48.796;9.480;2023-10-19T11:12:29;17.20;90.50
1347;DHT22;667;48.796;9.480;2023-10-19T11:14:55;17.30;90.50
1347;DHT22;667;48.796;9.480;2023-10-19T11:17:23;17.30;90.60
1347;DHT22;667;48.796;9.480;2023-10-19T11:19:58;17.30;90.70
1347;DHT22;667;48.796;9.480;2023-10-19T11:22:27;17.40;90.80
1347;DHT22;667;48.796;9.480;2023-10-19T11:24:53;17.40;90.70
1347;DHT22;667;48.796;9.480;2023-10-19T11:27:26;17.40;90.70
1347;DHT22;667;48.796;9.480;2023-10-19T11:29:58;17.40;90.70
1347;DHT22;667;48.796;9.480;2023-10-19T11:32:25;17.40;90.70
1347;DHT22;667;48.796;9.480;2023-10-19T11:34:53;17.40;90.70
1347;DHT22;667;48.796;9.480;2023-10-19T11:37:19;17.40;90.80
1347;DHT22;667;48.796;9.480;2023-10-19T11:39:44;17.40;90.80
1347;DHT22;667;48.796;9.480;2023-10-19T11:42:11;17.40;90.90
1347;DHT22;667;48.796;9.480;2023-10-19T11:44:37;17.40;91.00
1347;DHT22;667;48.796;9.480;2023-10-19T11:47:03;17.40;91.10
1347;DHT22;667;48.796;9.480;2023-10-19T11:49:29;17.40;91.20
1347;DHT22;667;48.796;9.480;2023-10-19T11:51:54;17.40;91.30
1347;DHT22;667;48.796;9.480;2023-10-19T11:54:20;17.40;91.50
1347;DHT22;667;48.796;9.480;2023-10-19T11:56:46;17.40;91.60
1347;DHT22;667;48.796;9.480;2023-10-19T11:59:11;17.30;91.70
1347;DHT22;667;48.796;9.480;2023-10-19T12:01:38;17.40;91.90
1347;DHT22;667;48.796;9.480;2023-10-19T12:04:04;17.30;92.00
1347;DHT22;667;48.796;9.480;2023-10-19T12:06:31;17.30;92.00
1347;DHT22;667;48.796;9.480;2023-10-19T12:08:56;17.30;92.10
1347;DHT22;667;48.796;9.480;2023-10-19T12:11:24;17.30;92.30
1347;DHT22;667;48.796;9.480;2023-10-19T12:13:50;17.30;92.40
1347;DHT22;667;48.796;9.480;2023-10-19T12:16:16;17.30;92.50
1347;DHT22;667;48.796;9.480;2023-10-19T12:18:42;17.30;92.60
1347;DHT22;667;48.796;9.480;2023-10-19T12:21:09;17.30;92.70
1347;DHT22;667;48.796;9.480;2023-10-19T12:23:42;17.30;92.80
1347;DHT22;667;48.796;9.480;2023-10-19T12:26:08;17.30;92.90
1347;DHT22;667;48.796;9.480;2023-10-19T12:28:38;17.30;92.90
1347;DHT22;667;48.796;9.480;2023-10-19T12:31:04;17.30;92.90
1347;DHT22;667;48.796;9.480;2023-10-19T12:33:31;17.40;93.10
1347;DHT22;667;48.796;9.480;2023-10-19T12:35:56;17.40;93.20
1347;DHT22;667;48.796;9.480;2023-10-19T12:38:23;17.40;93.20
1347;DHT22;667;48.796;9.480;2023-10-19T12:40:50;17.40;93.30
1347;DHT22;667;48.796;9.480;2023-10-19T12:43:17;17.40;93.30
1347;DHT22;667;48.796;9.480;2023-10-19T12:45:47;17.40;93.40
1347;DHT22;667;48.796;9.480;2023-10-19T12:48:16;17.40;93.50
1347;DHT22;667;48.796;9.480;2023-10-19T12:50:42;17.40;93.60
1347;DHT22;667;48.796;9.480;2023-10-19T12:53:08;17.40;93.60
1347;DHT22;667;48.796;9.480;2023-10-19T12:55:35;17.50;93.80
1347;DHT22;667;48.796;9.480;2023-10-19T12:58:02;17.50;93.80
1347;DHT22;667;48.796;9.480;2023-10-19T13:00:37;17.50;93.90
1347;DHT22;667;48.796;9.480;2023-10-19T13:03:14;17.50;93.90
1347;DHT22;667;48.796;9.480;2023-10-19T13:05:42;17.50;94.00
1347;DHT22;667;48.796;9.480;2023-10-19T13:08:11;17.50;94.00
1347;DHT22;667;48.796;9.480;2023-10-19T13:10:39;17.50;94.10
1347;DHT22;667;48.796;9.480;2023-10-19T13:13:08;17.50;94.10
1347;DHT22;667;48.796;9.480;2023-10-19T13:15:37;17.50;94.10
1347;DHT22;667;48.796;9.480;2023-10-19T13:18:04;17.40;94.10
1347;DHT22;667;48.796;9.480;2023-10-19T13:20:32;17.40;94.10
1347;DHT22;667;48.796;9.480;2023-10-19T13:25:31;17.40;94.20
1347;DHT22;667;48.796;9.480;2023-10-19T13:28:17;17.40;94.20
1347;DHT22;667;48.796;9.480;2023-10-19T13:30:48;17.40;94.30
1347;DHT22;667;48.796;9.480;2023-10-19T13:33:14;17.50;94.30
1347;DHT22;667;48.796;9.480;2023-10-19T13:35:44;17.50;94.30
1347;DHT22;667;48.796;9.480;2023-10-19T13:38:11;17.50;94.40
1347;DHT22;667;48.796;9.480;2023-10-19T13:40:41;17.50;94.40
1347;DHT22;667;48.796;9.480;2023-10-19T13:43:08;17.50;94.50
1347;DHT22;667;48.796;9.480;2023-10-19T13:45:35;17.50;94.60
1347;DHT22;667;48.796;9.480;2023-10-19T13:48:02;17.60;94.80
1347;DHT22;667;48.796;9.480;2023-10-19T13:50:31;17.60;94.80
1347;DHT22;667;48.796;9.480;2023-10-19T13:52:58;17.60;94.90
1347;DHT22;667;48.796;9.480;2023-10-19T13:55:28;17.60;95.00
1347;DHT22;667;48.796;9.480;2023-10-19T13:57:55;17.60;95.00
1347;DHT22;667;48.796;9.480;2023-10-19T14:00:22;17.60;94.90
1347;DHT22;667;48.796;9.480;2023-10-19T14:02:56;17.60;94.90
1347;DHT22;667;48.796;9.480;2023-10-19T14:05:23;17.60;95.00
1347;DHT22;667;48.796;9.480;2023-10-19T14:07:50;17.60;94.90
1347;DHT22;667;48.796;9.480;2023-10-19T14:10:20;17.60;94.90
1347;DHT22;667;48.796;9.480;2023-10-19T14:12:47;17.60;94.90
1347;DHT22;667;48.796;9.480;2023-10-19T14:15:15;17.60;94.80
1347;DHT22;667;48.796;9.480;2023-10-19T14:17:41;17.60;94.80
1347;DHT22;667;48.796;9.480;2023-10-19T14:20:08;17.60;94.90
1347;DHT22;667;48.796;9.480;2023-10-19T14:25:10;17.60;95.00
1347;DHT22;667;48.796;9.480;2023-10-19T14:27:43;17.60;95.00
1347;DHT22;667;48.796;9.480;2023-10-19T14:30:10;17.60;95.00
1347;DHT22;667;48.796;9.480;2023-10-19T14:32:43;17.60;95.10
1347;DHT22;667;48.796;9.480;2023-10-19T14:35:14;17.60;95.10
1347;DHT22;667;48.796;9.480;2023-10-19T14:37:42;17.60;95.10
1347;DHT22;667;48.796;9.480;2023-10-19T14:40:08;17.60;95.20
1347;DHT22;667;48.796;9.480;2023-10-19T14:42:36;17.60;95.20
1347;DHT22;667;48.796;9.480;2023-10-19T14:45:11;17.60;95.30
1347;DHT22;667;48.796;9.480;2023-10-19T14:47:38;17.60;95.30
1347;DHT22;667;48.796;9.480;2023-10-19T14:50:07;17.60;95.30
1347;DHT22;667;48.796;9.480;2023-10-19T14:52:34;17.60;95.30
1347;DHT22;667;48.796;9.480;2023-10-19T14:55:00;17.60;95.40
1347;DHT22;667;48.796;9.480;2023-10-19T14:57:26;17.60;95.30
1347;DHT22;667;48.796;9.480;2023-10-19T14:59:52;17.60;95.40
1347;DHT22;667;48.796;9.480;2023-10-19T15:02:18;17.60;95.40
1347;DHT22;667;48.796;9.480;2023-10-19T15:04:48;17.60;95.40
1347;DHT22;667;48.796;9.480;2023-10-19T15:07:14;17.60;95.50
1347;DHT22;667;48.796;9.480;2023-10-19T15:09:39;17.60;95.50
1347;DHT22;667;48.796;9.480;2023-10-19T15:12:05;17.60;95.50
1347;DHT22;667;48.796;9.480;2023-10-19T15:14:33;17.60;95.50
1347;DHT22;667;48.796;9.480;2023-10-19T15:16:59;17.60;95.50
1347;DHT22;667;48.796;9.480;2023-10-19T15:19:24;17.60;95.50
1347;DHT22;667;48.796;9.480;2023-10-19T15:21:50;17.60;95.60
1347;DHT22;667;48.796;9.480;2023-10-19T15:24:16;17.60;95.60
1347;DHT22;667;48.796;9.480;2023-10-19T15:26:42;17.60;95.60
1347;DHT22;667;48.796;9.480;2023-10-19T15:29:08;17.60;95.70
1347;DHT22;667;48.796;9.480;2023-10-19T15:31:34;17.60;95.70
1347;DHT22;667;48.796;9.480;2023-10-19T15:34:00;17.60;95.70
1347;DHT22;667;48.796;9.480;2023-10-19T15:36:26;17.60;95.70
1347;DHT22;667;48.796;9.480;2023-10-19T15:38:51;17.60;95.80
1347;DHT22;667;48.796;9.480;2023-10-19T15:41:17;17.60;95.80
1347;DHT22;667;48.796;9.480;2023-10-19T15:43:43;17.60;95.80
1347;DHT22;667;48.796;9.480;2023-10-19T15:46:08;17.60;95.90
1347;DHT22;667;48.796;9.480;2023-10-19T15:48:39;17.60;95.90
1347;DHT22;667;48.796;9.480;2023-10-19T15:51:05;17.60;95.90
1347;DHT22;667;48.796;9.480;2023-10-19T15:53:34;17.60;95.90
1347;DHT22;667;48.796;9.480;2023-10-19T15:56:00;17.70;95.90
1347;DHT22;667;48.796;9.480;2023-10-19T15:58:26;17.60;95.90
1347;DHT22;667;48.796;9.480;2023-10-19T16:00:52;17.60;95.90
1347;DHT22;667;48.796;9.480;2023-10-19T16:03:17;17.60;95.80
1347;DHT22;667;48.796;9.480;2023-10-19T16:05:43;17.60;95.80
1347;DHT22;667;48.796;9.480;2023-10-19T16:08:09;17.60;95.80
1347;DHT22;667;48.796;9.480;2023-10-19T16:10:34;17.50;95.70
1347;DHT22;667;48.796;9.480;2023-10-19T16:13:01;17.50;95.70
1347;DHT22;667;48.796;9.480;2023-10-19T16:15:27;17.50;95.60
1347;DHT22;667;48.796;9.480;2023-10-19T16:17:53;17.50;95.50
1347;DHT22;667;48.796;9.480;2023-10-19T16:20:19;17.50;95.50
1347;DHT22;667;48.796;9.480;2023-10-19T16:22:45;17.50;95.50
1347;DHT22;667;48.796;9.480;2023-10-19T16:25:12;17.40;95.40
1347;DHT22;667;48.796;9.480;2023-10-19T16:27:37;17.40;95.30
1347;DHT22;667;48.796;9.480;2023-10-19T16:30:04;17.40;95.30
1347;DHT22;667;48.796;9.480;2023-10-19T16:32:35;17.40;95.20
1347;DHT22;667;48.796;9.480;2023-10-19T16:35:01;17.40;95.20
1347;DHT22;667;48.796;9.480;2023-10-19T16:37:29;17.30;95.10
1347;DHT22;667;48.796;9.480;2023-10-19T16:39:54;17.30;95.00
1347;DHT22;667;48.796;9.480;2023-10-19T16:42:21;17.30;95.00
1347;DHT22;667;48.796;9.480;2023-10-19T16:44:47;17.30;95.00
1347;DHT22;667;48.796;9.480;2023-10-19T16:47:12;17.20;94.90
1347;DHT22;667;48.796;9.480;2023-10-19T16:49:38;17.20;94.90